Terminal Aerodrome Forecast
Issued by NWS

Home | Current Version | Previous Version | Text Only | Print | Product List | Glossary On
Versions: 1 2 3 4 5 6 7 8 9 10 11 12 13 14 15 16
000
FTUS46 KMTR 011737
TAFOAK
TAF
KOAK 011737Z 0118/0224 20008KT P6SM FEW015
     FM012200 29012G18KT P6SM FEW015
     FM020600 25008KT P6SM OVC010
     FM021500 24008KT P6SM BKN015
     FM022100 27012KT P6SM SCT020=

USA.gov is the U.S. government's official web portal to all federal, state and local government web resources and services.